Jasper, Canada
Current Conditions -  °F | °C
As of 1:00 PM on Saturday 25 Oct 2014 (Local Time) from CYET Reporting Station
Overcast Overcast  
Wind Chill: 29°   Ceiling: 7600
Heat Index: 36°   Visibility: 9mi
Dew Point: 25°   Wind: 9mph
Humidity: 65%   Direction: 60°ENE
Pressure: 29.75"   Gusts: NA
Location:  52.87°N, 118.08°W
Report Text: CYET 251900Z AUTO 06008KT 9SM SCT049 SCT055 BKN076 OVC090 02/M04 A2975 RMK SLP110
Loading
Personal Weather Stations






























Interactive Weather Map
Tropical Storm Tracking
New forecast layout! Learn more

10-Day Weather Forecast

Advertisements
Track Severe Weather on mobile